Time;durP1;ratioP1;P1;durP2;ratioP2;P2;SDS_P1;SDS_P2;PMS_P1;PMS_P2;Temp;Humidity;BMP_temperature;BMP_pressure;BME280_temperature;BME280_humidity;BME280_pressure;Samples;Min_cycle;Max_cycle;Signal;HPM_P1;HPM_P2
2023/08/26 00:00:33;;;;;;;6.10;3.45;;;;;;;;;;5037075;28;20025;-77
2023/08/26 00:02:58;;;;;;;6.82;3.85;;;;;;;;;;5025789;28;20123;-77
2023/08/26 00:05:24;;;;;;;6.40;3.65;;;;;;;;;;5024014;28;20402;-75
2023/08/26 00:07:50;;;;;;;4.57;3.17;;;;;;;;;;5025284;28;20432;-77
2023/08/26 00:10:16;;;;;;;5.65;3.83;;;;;;;;;;5030546;28;20484;-78
2023/08/26 00:12:41;;;;;;;6.85;3.53;;;;;;;;;;5039686;28;20026;-77
2023/08/26 00:15:07;;;;;;;6.18;3.78;;;;;;;;;;5028304;28;20076;-78
2023/08/26 00:17:33;;;;;;;4.70;3.50;;;;;;;;;;5030616;28;20018;-80
2023/08/26 00:19:59;;;;;;;8.23;3.80;;;;;;;;;;5012648;28;20799;-81
2023/08/26 00:22:25;;;;;;;5.72;3.78;;;;;;;;;;5029729;28;20025;-79
2023/08/26 00:24:51;;;;;;;13.05;3.45;;;;;;;;;;5012941;28;20544;-80
2023/08/26 00:27:17;;;;;;;8.40;4.57;;;;;;;;;;5032120;28;20055;-78
2023/08/26 00:29:44;;;;;;;4.68;3.40;;;;;;;;;;5033060;28;20618;-80
2023/08/26 00:32:11;;;;;;;5.80;3.55;;;;;;;;;;5051826;28;20106;-77
2023/08/26 00:34:36;;;;;;;5.35;3.22;;;;;;;;;;5026770;28;20131;-81
2023/08/26 00:37:02;;;;;;;4.85;3.53;;;;;;;;;;5020697;28;20025;-75
2023/08/26 00:39:28;;;;;;;6.15;3.90;;;;;;;;;;5025225;28;20037;-74
2023/08/26 00:41:56;;;;;;;5.55;3.78;;;;;;;;;;5031119;28;20021;-76
2023/08/26 00:44:22;;;;;;;4.05;3.40;;;;;;;;;;5014037;28;20042;-74
2023/08/26 00:46:48;;;;;;;7.32;3.60;;;;;;;;;;4999946;28;20182;-74
2023/08/26 00:49:14;;;;;;;4.80;3.38;;;;;;;;;;5007364;28;20718;-76
2023/08/26 00:51:40;;;;;;;5.85;3.60;;;;;;;;;;5030718;28;20160;-77
2023/08/26 00:54:09;;;;;;;6.55;4.10;;;;;;;;;;5016191;28;20646;-74
2023/08/26 00:56:35;;;;;;;6.38;3.60;;;;;;;;;;5029569;28;20033;-75
2023/08/26 00:59:01;;;;;;;8.65;4.43;;;;;;;;;;5024401;28;20070;-75
2023/08/26 01:01:29;;;;;;;5.25;3.75;;;;;;;;;;5030800;28;20032;-75
2023/08/26 01:03:55;;;;;;;4.45;3.40;;;;;;;;;;5018796;28;20049;-75
2023/08/26 01:06:22;;;;;;;4.28;3.35;;;;;;;;;;5023542;28;20474;-78
2023/08/26 01:08:48;;;;;;;3.80;3.40;;;;;;;;;;5014536;28;20029;-74
2023/08/26 01:11:17;;;;;;;3.33;2.97;;;;;;;;;;5047134;28;20512;-76
2023/08/26 01:14:12;;;;;;;5.72;3.47;;;;;;;;;;5020303;28;20025;-74
2023/08/26 01:16:41;;;;;;;9.40;3.63;;;;;;;;;;5028939;28;20112;-76
2023/08/26 01:19:33;;;;;;;4.90;3.20;;;;;;;;;;5023578;28;20041;-74
2023/08/26 01:22:05;;;;;;;4.18;3.60;;;;;;;;;;5008864;28;20038;-74
2023/08/26 01:24:34;;;;;;;8.02;3.80;;;;;;;;;;5045068;28;20032;-76
2023/08/26 01:26:59;;;;;;;5.00;3.95;;;;;;;;;;5030521;28;20486;-76
2023/08/26 01:29:28;;;;;;;4.28;3.88;;;;;;;;;;5022867;28;20083;-75
2023/08/26 01:32:17;;;;;;;5.95;3.50;;;;;;;;;;5035658;28;20429;-75
2023/08/26 01:34:47;;;;;;;6.43;3.55;;;;;;;;;;5029419;28;20590;-75
2023/08/26 01:37:14;;;;;;;4.57;3.50;;;;;;;;;;5027695;28;20087;-73
2023/08/26 01:39:41;;;;;;;5.95;3.30;;;;;;;;;;5027736;28;20152;-78
2023/08/26 01:42:09;;;;;;;5.55;3.65;;;;;;;;;;5040437;28;20482;-75
2023/08/26 01:44:35;;;;;;;3.90;3.30;;;;;;;;;;5030991;28;20041;-74
2023/08/26 01:47:01;;;;;;;6.93;3.58;;;;;;;;;;5030292;28;20102;-76
2023/08/26 01:49:27;;;;;;;8.70;4.05;;;;;;;;;;5024133;28;20039;-76
2023/08/26 01:51:52;;;;;;;4.45;3.20;;;;;;;;;;5030768;28;20037;-75
2023/08/26 01:54:18;;;;;;;4.10;3.47;;;;;;;;;;5017613;28;20032;-74
2023/08/26 01:56:43;;;;;;;5.32;3.50;;;;;;;;;;5027591;28;20540;-74
2023/08/26 01:59:09;;;;;;;5.25;3.10;;;;;;;;;;5039132;28;20445;-75
2023/08/26 02:01:36;;;;;;;7.15;3.95;;;;;;;;;;5022600;28;20479;-77
2023/08/26 02:04:02;;;;;;;10.57;4.47;;;;;;;;;;5013276;28;20087;-76
2023/08/26 02:06:28;;;;;;;5.03;3.35;;;;;;;;;;5026673;28;20029;-75
2023/08/26 02:08:54;;;;;;;4.68;3.30;;;;;;;;;;5026994;28;20045;-75
2023/08/26 02:11:21;;;;;;;3.38;2.97;;;;;;;;;;5036690;28;20026;-75
2023/08/26 02:13:46;;;;;;;4.68;3.35;;;;;;;;;;5021451;28;20021;-73
2023/08/26 02:16:13;;;;;;;6.05;4.00;;;;;;;;;;5023633;28;20051;-76
2023/08/26 02:18:39;;;;;;;5.40;3.50;;;;;;;;;;5036580;28;20030;-75
2023/08/26 02:21:05;;;;;;;5.28;3.53;;;;;;;;;;5024428;28;20040;-73
2023/08/26 02:23:30;;;;;;;4.95;3.25;;;;;;;;;;5010188;28;20026;-75
2023/08/26 02:25:56;;;;;;;7.25;3.65;;;;;;;;;;5018370;28;20486;-75
2023/08/26 02:28:22;;;;;;;4.18;3.28;;;;;;;;;;5030877;28;20049;-76
2023/08/26 02:30:48;;;;;;;4.05;3.20;;;;;;;;;;5016074;28;20026;-74
2023/08/26 02:33:14;;;;;;;8.75;4.35;;;;;;;;;;5026577;28;20381;-75
2023/08/26 02:35:48;;;;;;;4.65;3.22;;;;;;;;;;5010464;28;20041;-75
2023/08/26 02:38:14;;;;;;;4.50;3.20;;;;;;;;;;5011077;28;20030;-75
2023/08/26 02:40:40;;;;;;;6.07;4.15;;;;;;;;;;5009991;28;20026;-76
2023/08/26 02:43:07;;;;;;;7.90;3.72;;;;;;;;;;5028496;28;20672;-74
2023/08/26 02:45:32;;;;;;;7.18;3.88;;;;;;;;;;5010994;28;20037;-75
2023/08/26 02:47:58;;;;;;;6.15;3.78;;;;;;;;;;5018564;28;20048;-76
2023/08/26 02:50:24;;;;;;;6.05;3.42;;;;;;;;;;5030921;28;20033;-75
2023/08/26 02:52:51;;;;;;;5.90;3.25;;;;;;;;;;5015985;28;20030;-75
2023/08/26 02:55:17;;;;;;;15.10;4.35;;;;;;;;;;5012335;28;20395;-77
2023/08/26 02:57:43;;;;;;;7.55;3.40;;;;;;;;;;5030845;28;20060;-74
2023/08/26 03:00:09;;;;;;;6.97;3.83;;;;;;;;;;5013889;28;20102;-75
2023/08/26 03:02:35;;;;;;;5.05;3.00;;;;;;;;;;5021275;28;20686;-75
2023/08/26 03:05:02;;;;;;;9.63;3.42;;;;;;;;;;5030690;28;20030;-74
2023/08/26 03:07:28;;;;;;;7.50;4.47;;;;;;;;;;5044458;28;20128;-74
2023/08/26 03:09:54;;;;;;;4.82;3.53;;;;;;;;;;5021044;28;20113;-75
2023/08/26 03:12:19;;;;;;;4.28;3.40;;;;;;;;;;5028719;28;20064;-76
2023/08/26 03:14:45;;;;;;;5.63;3.22;;;;;;;;;;5029152;28;20031;-78
2023/08/26 03:17:11;;;;;;;6.03;3.25;;;;;;;;;;5023029;28;20051;-73
2023/08/26 03:19:37;;;;;;;5.93;3.33;;;;;;;;;;5018347;28;20686;-74
2023/08/26 03:22:03;;;;;;;5.68;3.45;;;;;;;;;;5010779;28;20065;-76
2023/08/26 03:24:28;;;;;;;4.55;3.35;;;;;;;;;;5010422;28;20044;-75
2023/08/26 03:26:54;;;;;;;6.15;3.33;;;;;;;;;;5023437;28;20060;-75
2023/08/26 03:29:20;;;;;;;4.55;4.00;;;;;;;;;;5021177;28;20060;-75
2023/08/26 03:31:48;;;;;;;7.72;3.70;;;;;;;;;;5045921;28;20108;-73
2023/08/26 03:34:14;;;;;;;12.63;4.03;;;;;;;;;;5005708;28;20501;-77
2023/08/26 03:36:40;;;;;;;6.68;3.78;;;;;;;;;;5022300;28;20068;-76
2023/08/26 03:39:06;;;;;;;5.88;3.30;;;;;;;;;;5018056;28;20091;-74
2023/08/26 03:41:32;;;;;;;5.40;4.20;;;;;;;;;;5029218;28;20029;-76
2023/08/26 03:43:59;;;;;;;7.72;3.42;;;;;;;;;;5012392;28;20398;-76
2023/08/26 03:46:26;;;;;;;9.70;3.83;;;;;;;;;;5022197;28;20080;-77
2023/08/26 03:48:52;;;;;;;9.20;3.83;;;;;;;;;;5029696;28;20029;-77
2023/08/26 03:51:19;;;;;;;4.78;3.30;;;;;;;;;;5013712;28;20034;-77
2023/08/26 03:53:44;;;;;;;5.15;3.63;;;;;;;;;;5030491;28;20032;-76
2023/08/26 03:56:10;;;;;;;12.98;6.50;;;;;;;;;;5014459;28;20025;-77
2023/08/26 03:58:37;;;;;;;8.52;4.38;;;;;;;;;;5026082;28;20018;-77
2023/08/26 04:01:07;;;;;;;5.25;3.80;;;;;;;;;;5040653;28;20022;-76
2023/08/26 04:03:33;;;;;;;5.85;4.20;;;;;;;;;;5026329;28;20092;-77
2023/08/26 04:06:04;;;;;;;5.97;4.07;;;;;;;;;;5037938;28;20017;-76
2023/08/26 04:08:31;;;;;;;5.95;3.67;;;;;;;;;;5025843;28;20032;-78
2023/08/26 04:10:58;;;;;;;13.25;4.05;;;;;;;;;;5039945;28;20025;-79
2023/08/26 04:13:25;;;;;;;5.18;3.58;;;;;;;;;;5047910;28;20112;-79
2023/08/26 04:15:58;;;;;;;4.40;3.45;;;;;;;;;;5021328;28;20042;-79
2023/08/26 04:18:24;;;;;;;7.75;3.92;;;;;;;;;;5020778;28;20029;-78
2023/08/26 04:20:50;;;;;;;4.57;3.58;;;;;;;;;;5033438;28;20026;-81
2023/08/26 04:23:16;;;;;;;7.47;4.18;;;;;;;;;;5034143;28;20516;-79
2023/08/26 04:25:43;;;;;;;5.05;3.92;;;;;;;;;;5020171;28;20078;-80
2023/08/26 04:28:09;;;;;;;8.80;4.03;;;;;;;;;;5034177;28;20087;-80
2023/08/26 04:30:36;;;;;;;7.82;3.78;;;;;;;;;;5028310;28;20022;-80
2023/08/26 04:33:06;;;;;;;5.63;3.80;;;;;;;;;;5032417;28;20032;-80
2023/08/26 04:35:36;;;;;;;23.47;6.63;;;;;;;;;;5016705;28;20026;-80
2023/08/26 04:38:03;;;;;;;7.82;4.10;;;;;;;;;;5012870;28;20032;-80
2023/08/26 04:40:29;;;;;;;8.93;4.55;;;;;;;;;;5019365;28;20048;-79
2023/08/26 04:42:56;;;;;;;11.70;4.60;;;;;;;;;;5033425;28;20378;-78
2023/08/26 04:45:22;;;;;;;7.07;4.43;;;;;;;;;;5019714;28;20030;-80
2023/08/26 04:47:49;;;;;;;31.20;5.78;;;;;;;;;;5029070;28;20061;-80
2023/08/26 04:50:14;;;;;;;13.65;4.85;;;;;;;;;;5026811;28;20428;-80
2023/08/26 04:52:41;;;;;;;12.52;4.78;;;;;;;;;;5026342;28;20022;-80
2023/08/26 04:55:08;;;;;;;11.43;4.10;;;;;;;;;;5013034;28;20771;-80
2023/08/26 04:57:33;;;;;;;10.15;5.18;;;;;;;;;;5043217;28;20098;-81
2023/08/26 04:59:59;;;;;;;7.70;3.88;;;;;;;;;;5015898;28;20398;-81
2023/08/26 05:02:25;;;;;;;12.20;4.13;;;;;;;;;;5030491;28;20025;-80
2023/08/26 05:04:53;;;;;;;7.38;4.72;;;;;;;;;;5018149;28;20155;-78
2023/08/26 05:07:20;;;;;;;10.80;5.55;;;;;;;;;;5016858;28;20026;-81
2023/08/26 05:09:46;;;;;;;5.05;4.20;;;;;;;;;;5026359;28;20488;-81
2023/08/26 05:12:11;;;;;;;9.45;4.07;;;;;;;;;;5018558;28;20030;-80
2023/08/26 05:14:37;;;;;;;7.28;3.67;;;;;;;;;;5053221;28;20045;-78
2023/08/26 05:17:03;;;;;;;6.47;3.58;;;;;;;;;;5035545;28;20056;-81
2023/08/26 05:19:28;;;;;;;7.22;4.78;;;;;;;;;;5030452;28;20376;-80
2023/08/26 05:21:54;;;;;;;5.50;4.57;;;;;;;;;;5028611;28;20022;-79
2023/08/26 05:24:19;;;;;;;6.60;4.53;;;;;;;;;;5029983;28;20060;-80
2023/08/26 05:26:45;;;;;;;9.02;4.90;;;;;;;;;;5018787;28;20045;-81
2023/08/26 05:29:11;;;;;;;12.73;5.53;;;;;;;;;;5031712;28;20025;-79
2023/08/26 05:31:37;;;;;;;11.75;4.53;;;;;;;;;;5024134;28;20490;-80
2023/08/26 05:34:04;;;;;;;5.47;4.13;;;;;;;;;;5031780;28;20029;-80
2023/08/26 05:36:30;;;;;;;7.32;4.35;;;;;;;;;;5015779;28;20017;-81
2023/08/26 05:38:55;;;;;;;5.13;4.18;;;;;;;;;;5033866;28;20382;-81
2023/08/26 05:41:21;;;;;;;7.30;4.43;;;;;;;;;;5025368;28;20478;-79
2023/08/26 05:43:47;;;;;;;5.07;3.90;;;;;;;;;;5033252;28;20040;-81
2023/08/26 05:46:13;;;;;;;8.85;4.47;;;;;;;;;;5016788;28;20175;-79
2023/08/26 05:48:39;;;;;;;8.20;4.57;;;;;;;;;;5032544;28;20057;-81
2023/08/26 05:51:05;;;;;;;8.20;4.35;;;;;;;;;;5017590;28;20355;-79
2023/08/26 05:53:33;;;;;;;6.75;4.22;;;;;;;;;;5021793;28;20070;-80
2023/08/26 05:55:59;;;;;;;9.32;5.03;;;;;;;;;;5019608;28;20450;-79
2023/08/26 05:58:25;;;;;;;10.15;5.18;;;;;;;;;;5027917;28;20043;-80
2023/08/26 06:00:51;;;;;;;9.63;4.97;;;;;;;;;;5023400;28;20087;-77
2023/08/26 06:03:17;;;;;;;9.88;5.60;;;;;;;;;;5023611;28;20037;-80
2023/08/26 06:05:42;;;;;;;9.07;5.05;;;;;;;;;;5010907;28;20049;-81
2023/08/26 06:08:09;;;;;;;6.35;4.72;;;;;;;;;;5027353;28;20068;-79
2023/08/26 06:10:35;;;;;;;6.50;4.63;;;;;;;;;;5013947;28;20105;-79
2023/08/26 06:13:03;;;;;;;7.97;5.38;;;;;;;;;;5016486;28;20543;-79
2023/08/26 06:15:28;;;;;;;10.57;5.55;;;;;;;;;;5025236;28;20476;-79
2023/08/26 06:17:54;;;;;;;9.35;5.72;;;;;;;;;;5013343;28;20124;-79
2023/08/26 06:20:19;;;;;;;7.93;5.25;;;;;;;;;;5017789;28;20108;-79
2023/08/26 06:22:45;;;;;;;9.45;5.85;;;;;;;;;;5041496;28;20100;-79
2023/08/26 06:25:12;;;;;;;10.23;6.30;;;;;;;;;;5030648;28;20045;-77
2023/08/26 06:27:38;;;;;;;12.63;5.53;;;;;;;;;;5029592;28;20036;-80
2023/08/26 06:30:04;;;;;;;11.13;5.35;;;;;;;;;;5029820;28;20029;-81
2023/08/26 06:32:30;;;;;;;15.68;8.13;;;;;;;;;;5016329;28;20065;-80
2023/08/26 06:34:57;;;;;;;11.90;7.57;;;;;;;;;;5028204;28;20029;-79
2023/08/26 06:37:22;;;;;;;8.68;5.95;;;;;;;;;;5018451;28;20021;-79
2023/08/26 06:39:48;;;;;;;10.82;6.55;;;;;;;;;;5031239;28;20037;-80
2023/08/26 06:42:14;;;;;;;12.63;7.18;;;;;;;;;;5017430;28;20026;-79
2023/08/26 06:44:41;;;;;;;13.20;7.13;;;;;;;;;;5027128;28;20619;-79
2023/08/26 06:47:09;;;;;;;12.77;6.80;;;;;;;;;;5011624;28;20409;-80
2023/08/26 06:49:34;;;;;;;9.93;6.55;;;;;;;;;;5021688;28;20162;-82
2023/08/26 06:52:00;;;;;;;10.65;6.85;;;;;;;;;;5014602;28;20662;-81
2023/08/26 06:54:26;;;;;;;9.63;6.25;;;;;;;;;;5029195;28;20026;-81
2023/08/26 06:56:52;;;;;;;9.88;7.00;;;;;;;;;;5012183;28;20114;-81
2023/08/26 06:59:20;;;;;;;11.05;6.72;;;;;;;;;;5012283;28;20118;-81
2023/08/26 07:01:46;;;;;;;13.13;7.15;;;;;;;;;;5023411;28;20108;-82
2023/08/26 07:04:12;;;;;;;12.45;7.22;;;;;;;;;;5035264;28;20041;-80
2023/08/26 07:06:38;;;;;;;14.00;8.70;;;;;;;;;;5021667;28;20250;-80
2023/08/26 07:09:04;;;;;;;10.90;7.78;;;;;;;;;;5030968;28;20025;-80
2023/08/26 07:11:30;;;;;;;9.68;6.53;;;;;;;;;;5020227;28;20049;-78
2023/08/26 07:13:56;;;;;;;10.07;6.32;;;;;;;;;;5034265;28;20133;-81
2023/08/26 07:16:21;;;;;;;9.43;5.97;;;;;;;;;;5019674;28;20026;-82
2023/08/26 07:18:47;;;;;;;14.77;7.20;;;;;;;;;;5034025;28;20029;-82
2023/08/26 07:21:15;;;;;;;12.55;6.32;;;;;;;;;;5036121;28;20025;-82
2023/08/26 07:23:40;;;;;;;9.75;6.78;;;;;;;;;;5034928;28;20021;-81
2023/08/26 07:26:06;;;;;;;13.32;6.00;;;;;;;;;;5017873;28;20055;-80
2023/08/26 07:28:31;;;;;;;10.88;7.10;;;;;;;;;;5041993;28;20036;-80
2023/08/26 07:31:05;;;;;;;6.43;5.63;;;;;;;;;;5037442;28;20517;-79
2023/08/26 07:33:31;;;;;;;10.75;6.38;;;;;;;;;;5063638;28;20032;-80
2023/08/26 07:36:15;;;;;;;9.35;6.43;;;;;;;;;;5037269;28;20026;-81
2023/08/26 07:38:41;;;;;;;11.50;7.30;;;;;;;;;;5039710;28;20059;-79
2023/08/26 07:41:07;;;;;;;12.63;7.68;;;;;;;;;;5025870;28;20480;-80
2023/08/26 07:43:33;;;;;;;9.75;6.35;;;;;;;;;;5032580;28;20386;-80
2023/08/26 07:45:59;;;;;;;9.60;5.68;;;;;;;;;;5025889;28;20118;-79
2023/08/26 07:48:24;;;;;;;9.00;5.53;;;;;;;;;;5024488;28;20745;-80
2023/08/26 07:50:50;;;;;;;6.13;5.03;;;;;;;;;;5025746;28;20208;-77
2023/08/26 07:53:15;;;;;;;10.80;6.00;;;;;;;;;;5029698;28;20470;-77
2023/08/26 07:55:41;;;;;;;10.30;5.78;;;;;;;;;;5028634;28;20061;-78
2023/08/26 07:58:08;;;;;;;5.95;4.75;;;;;;;;;;5012444;28;20489;-77
2023/08/26 08:00:34;;;;;;;6.63;5.30;;;;;;;;;;5022356;28;20029;-77
2023/08/26 08:02:59;;;;;;;8.18;5.82;;;;;;;;;;5026872;28;20056;-77
2023/08/26 08:05:25;;;;;;;9.75;5.50;;;;;;;;;;5029425;28;20068;-77
2023/08/26 08:07:51;;;;;;;10.00;5.78;;;;;;;;;;5018635;28;20030;-78
2023/08/26 08:10:16;;;;;;;9.07;6.10;;;;;;;;;;5030680;28;20048;-77
2023/08/26 08:12:42;;;;;;;10.18;5.57;;;;;;;;;;5011207;28;20056;-77
2023/08/26 08:15:08;;;;;;;7.65;4.85;;;;;;;;;;5043691;28;20468;-78
2023/08/26 08:17:34;;;;;;;7.43;5.57;;;;;;;;;;5014904;28;20029;-77
2023/08/26 08:19:59;;;;;;;7.07;4.93;;;;;;;;;;5030368;28;20128;-78
2023/08/26 08:22:36;;;;;;;10.07;5.72;;;;;;;;;;5025237;28;20489;-78
2023/08/26 08:25:03;;;;;;;7.88;5.63;;;;;;;;;;5016133;28;20030;-77
2023/08/26 08:27:29;;;;;;;9.57;5.38;;;;;;;;;;5013823;28;20374;-77
2023/08/26 08:29:55;;;;;;;7.78;5.43;;;;;;;;;;5031000;28;20029;-77
2023/08/26 08:32:21;;;;;;;5.97;4.55;;;;;;;;;;5024007;28;20115;-78
2023/08/26 08:34:46;;;;;;;6.43;4.97;;;;;;;;;;5047418;28;20026;-77
2023/08/26 08:37:12;;;;;;;6.95;4.65;;;;;;;;;;5030765;28;20048;-78
2023/08/26 08:39:37;;;;;;;7.05;5.07;;;;;;;;;;5047095;28;20039;-78
2023/08/26 08:42:04;;;;;;;7.35;4.72;;;;;;;;;;5017628;28;20037;-77
2023/08/26 08:44:34;;;;;;;9.73;4.93;;;;;;;;;;5012429;28;20077;-78
2023/08/26 08:47:04;;;;;;;6.35;4.55;;;;;;;;;;5012096;28;20072;-77
2023/08/26 08:49:31;;;;;;;8.57;5.40;;;;;;;;;;5012972;28;20022;-76
2023/08/26 08:51:58;;;;;;;6.20;5.05;;;;;;;;;;5018913;28;20034;-78
2023/08/26 08:54:26;;;;;;;8.13;5.20;;;;;;;;;;5011051;28;20033;-77
2023/08/26 08:56:52;;;;;;;6.40;5.20;;;;;;;;;;5025268;28;20052;-77
2023/08/26 08:59:19;;;;;;;6.65;4.70;;;;;;;;;;5033136;28;20258;-78
2023/08/26 09:01:45;;;;;;;9.13;4.82;;;;;;;;;;5032142;28;20032;-78
2023/08/26 09:04:11;;;;;;;8.45;4.88;;;;;;;;;;5033426;28;20034;-77
2023/08/26 09:06:38;;;;;;;5.53;4.88;;;;;;;;;;5018291;28;20086;-78
2023/08/26 09:09:10;;;;;;;6.35;4.75;;;;;;;;;;5029617;28;20040;-79
2023/08/26 09:11:39;;;;;;;6.65;4.53;;;;;;;;;;5024171;28;20486;-79
2023/08/26 09:14:06;;;;;;;6.32;4.55;;;;;;;;;;5031202;28;20037;-78
2023/08/26 09:16:36;;;;;;;8.27;5.15;;;;;;;;;;5024134;28;20025;-78
2023/08/26 09:19:04;;;;;;;8.30;5.05;;;;;;;;;;5010504;28;20064;-78
2023/08/26 09:21:33;;;;;;;6.53;4.80;;;;;;;;;;5019418;28;20130;-77
2023/08/26 09:24:00;;;;;;;7.47;4.97;;;;;;;;;;5029645;28;20033;-77
2023/08/26 09:26:27;;;;;;;7.40;4.93;;;;;;;;;;5025061;28;20490;-78
2023/08/26 09:28:54;;;;;;;8.02;5.00;;;;;;;;;;5022294;28;20476;-79
2023/08/26 09:31:20;;;;;;;7.80;4.78;;;;;;;;;;5017423;28;20040;-77
2023/08/26 09:33:50;;;;;;;5.72;4.63;;;;;;;;;;5010101;28;20026;-78
2023/08/26 09:36:17;;;;;;;8.32;4.43;;;;;;;;;;5010978;28;20037;-78
2023/08/26 09:38:44;;;;;;;4.90;4.18;;;;;;;;;;5024159;28;20109;-77
2023/08/26 09:41:12;;;;;;;6.72;4.10;;;;;;;;;;5001605;28;20452;-78
2023/08/26 09:43:43;;;;;;;5.60;4.32;;;;;;;;;;5024646;28;20063;-78
2023/08/26 09:46:09;;;;;;;5.47;4.15;;;;;;;;;;5001131;28;20046;-78
2023/08/26 09:48:34;;;;;;;6.10;4.40;;;;;;;;;;5007092;28;20563;-78
2023/08/26 09:51:00;;;;;;;7.30;4.93;;;;;;;;;;4990373;28;20468;-78
2023/08/26 09:53:33;;;;;;;8.38;4.75;;;;;;;;;;5002474;28;20117;-77
2023/08/26 09:55:59;;;;;;;8.68;5.68;;;;;;;;;;5016917;28;20091;-77
2023/08/26 09:58:26;;;;;;;7.05;4.78;;;;;;;;;;5011109;28;20026;-76
2023/08/26 10:00:54;;;;;;;7.35;4.68;;;;;;;;;;5006220;28;20026;-77
2023/08/26 10:03:24;;;;;;;10.25;5.68;;;;;;;;;;5017526;28;20038;-77
2023/08/26 10:05:57;;;;;;;6.45;4.47;;;;;;;;;;5005998;28;20030;-76
2023/08/26 10:08:32;;;;;;;6.25;4.72;;;;;;;;;;4992486;28;20034;-77
2023/08/26 10:11:01;;;;;;;9.23;4.90;;;;;;;;;;4990702;28;20109;-77
2023/08/26 10:13:27;;;;;;;6.20;5.07;;;;;;;;;;5002348;28;20427;-77
2023/08/26 10:15:56;;;;;;;6.85;4.90;;;;;;;;;;4994157;28;20057;-77
2023/08/26 10:18:36;;;;;;;5.05;4.47;;;;;;;;;;5008912;28;20475;-77
2023/08/26 10:21:03;;;;;;;10.63;5.10;;;;;;;;;;5006475;28;20026;-78
2023/08/26 10:23:29;;;;;;;4.85;4.28;;;;;;;;;;5016931;28;20030;-77
2023/08/26 10:25:56;;;;;;;9.48;5.45;;;;;;;;;;5005658;28;20077;-78
2023/08/26 10:28:23;;;;;;;7.03;4.72;;;;;;;;;;5023579;28;20034;-78
2023/08/26 10:30:50;;;;;;;6.63;4.38;;;;;;;;;;5010759;28;20068;-77
2023/08/26 10:33:16;;;;;;;10.77;4.93;;;;;;;;;;5010793;28;20116;-78
2023/08/26 10:35:41;;;;;;;4.90;4.18;;;;;;;;;;5012441;28;20500;-77
2023/08/26 10:38:17;;;;;;;5.40;4.47;;;;;;;;;;5016108;28;20030;-78
2023/08/26 10:40:43;;;;;;;6.50;4.07;;;;;;;;;;5020338;28;20084;-77
2023/08/26 10:43:11;;;;;;;5.53;4.70;;;;;;;;;;5027152;28;20038;-77
2023/08/26 10:45:48;;;;;;;11.15;4.90;;;;;;;;;;5006764;28;20072;-77
2023/08/26 10:48:13;;;;;;;6.20;4.97;;;;;;;;;;5005954;28;20030;-78
2023/08/26 10:50:43;;;;;;;6.43;4.60;;;;;;;;;;5009949;28;20038;-78
2023/08/26 10:53:15;;;;;;;5.47;4.87;;;;;;;;;;5009470;28;20025;-77
2023/08/26 10:55:40;;;;;;;8.63;5.20;;;;;;;;;;5010501;28;20026;-78
2023/08/26 10:58:17;;;;;;;7.35;4.70;;;;;;;;;;5025915;28;20355;-77
2023/08/26 11:00:44;;;;;;;6.22;4.57;;;;;;;;;;5006207;28;20090;-78
2023/08/26 11:03:11;;;;;;;6.82;4.40;;;;;;;;;;5011394;28;20030;-78
2023/08/26 11:05:39;;;;;;;5.13;4.43;;;;;;;;;;5005834;28;20026;-77
2023/08/26 11:08:05;;;;;;;7.07;4.25;;;;;;;;;;5002977;28;20029;-77
2023/08/26 11:10:32;;;;;;;8.40;4.45;;;;;;;;;;4995057;28;20392;-76
2023/08/26 11:12:58;;;;;;;4.70;3.92;;;;;;;;;;4999713;28;20036;-77
2023/08/26 11:15:25;;;;;;;6.93;4.50;;;;;;;;;;5005365;28;20026;-76
2023/08/26 11:17:51;;;;;;;5.65;4.13;;;;;;;;;;5008075;28;20371;-78
2023/08/26 11:20:17;;;;;;;4.30;3.88;;;;;;;;;;4988517;28;20030;-76
2023/08/26 11:22:46;;;;;;;5.20;4.22;;;;;;;;;;4999361;28;20078;-77
2023/08/26 11:25:16;;;;;;;4.82;4.38;;;;;;;;;;4991249;28;20099;-77
2023/08/26 11:27:41;;;;;;;6.17;4.10;;;;;;;;;;5008402;28;20049;-80
2023/08/26 11:30:11;;;;;;;6.70;4.18;;;;;;;;;;4990362;28;20050;-78
2023/08/26 11:32:37;;;;;;;6.60;4.60;;;;;;;;;;5018017;28;20056;-78
2023/08/26 11:35:07;;;;;;;6.40;4.38;;;;;;;;;;4993209;28;20085;-78
2023/08/26 11:37:39;;;;;;;7.45;4.80;;;;;;;;;;4993148;28;20026;-78
2023/08/26 11:40:05;;;;;;;4.28;3.88;;;;;;;;;;5012654;28;20037;-78
2023/08/26 11:42:31;;;;;;;4.75;3.90;;;;;;;;;;5003019;28;20106;-79
2023/08/26 11:44:56;;;;;;;4.32;3.92;;;;;;;;;;5008724;28;20152;-77
2023/08/26 11:47:23;;;;;;;4.97;3.90;;;;;;;;;;5009879;28;20378;-78
2023/08/26 11:49:49;;;;;;;4.70;3.80;;;;;;;;;;5004919;28;20030;-78
2023/08/26 11:52:15;;;;;;;9.23;3.78;;;;;;;;;;4991905;28;20029;-78
2023/08/26 11:54:41;;;;;;;4.35;3.47;;;;;;;;;;4996792;28;20069;-77
2023/08/26 11:57:07;;;;;;;4.30;3.33;;;;;;;;;;5008029;28;20058;-77
2023/08/26 11:59:39;;;;;;;5.60;4.20;;;;;;;;;;5010163;28;20045;-76
2023/08/26 12:02:24;;;;;;;5.57;3.88;;;;;;;;;;4994889;28;20026;-77
2023/08/26 12:05:00;;;;;;;4.53;3.72;;;;;;;;;;5008077;28;20018;-77
2023/08/26 12:07:29;;;;;;;4.45;3.70;;;;;;;;;;4997313;28;20057;-76
2023/08/26 12:09:56;;;;;;;5.68;3.53;;;;;;;;;;5022336;28;20022;-77
2023/08/26 12:12:23;;;;;;;8.68;3.85;;;;;;;;;;5011439;28;20121;-77
2023/08/26 12:14:51;;;;;;;7.07;4.15;;;;;;;;;;4999771;28;20076;-77
2023/08/26 12:17:17;;;;;;;5.97;3.85;;;;;;;;;;5010274;28;20458;-77
2023/08/26 12:19:43;;;;;;;5.38;3.58;;;;;;;;;;4995897;28;20277;-78
2023/08/26 12:22:10;;;;;;;4.28;3.35;;;;;;;;;;5022150;28;20066;-77
2023/08/26 12:24:37;;;;;;;6.88;3.10;;;;;;;;;;5007650;28;20352;-78
2023/08/26 12:27:10;;;;;;;4.43;3.08;;;;;;;;;;5021083;28;20132;-78
2023/08/26 12:29:37;;;;;;;4.35;2.97;;;;;;;;;;4994455;28;20030;-78
2023/08/26 12:32:04;;;;;;;4.78;3.45;;;;;;;;;;5007292;28;20022;-78
2023/08/26 12:34:30;;;;;;;4.28;2.80;;;;;;;;;;5002234;28;20026;-79
2023/08/26 12:36:56;;;;;;;4.93;3.42;;;;;;;;;;4999828;28;20521;-78
2023/08/26 12:39:24;;;;;;;3.17;2.90;;;;;;;;;;5012475;28;20038;-77
2023/08/26 12:41:53;;;;;;;4.32;3.08;;;;;;;;;;4992824;28;20030;-78
2023/08/26 12:44:19;;;;;;;4.75;3.17;;;;;;;;;;5003469;28;20478;-77
2023/08/26 12:46:45;;;;;;;7.22;3.53;;;;;;;;;;5002142;28;20037;-78
2023/08/26 12:49:10;;;;;;;7.75;3.30;;;;;;;;;;5011953;28;20073;-78
2023/08/26 12:51:36;;;;;;;6.38;3.00;;;;;;;;;;5011755;28;20496;-77
2023/08/26 12:54:03;;;;;;;4.55;3.10;;;;;;;;;;5003410;28;20026;-77
2023/08/26 12:56:29;;;;;;;4.05;3.08;;;;;;;;;;5007264;28;20092;-77
2023/08/26 12:58:54;;;;;;;5.38;2.70;;;;;;;;;;4994834;28;20038;-77
2023/08/26 13:01:20;;;;;;;4.55;2.88;;;;;;;;;;5006976;28;20022;-77
2023/08/26 13:03:45;;;;;;;4.45;3.53;;;;;;;;;;5003501;28;20029;-79
2023/08/26 13:06:13;;;;;;;3.25;2.80;;;;;;;;;;4990561;28;20057;-78
2023/08/26 13:08:38;;;;;;;4.82;2.92;;;;;;;;;;5013635;28;20026;-77
2023/08/26 13:11:04;;;;;;;5.38;3.10;;;;;;;;;;4991827;28;20033;-77
2023/08/26 13:13:30;;;;;;;3.83;3.20;;;;;;;;;;5001394;28;20038;-78
2023/08/26 13:15:56;;;;;;;4.53;3.08;;;;;;;;;;5010740;28;20022;-78
2023/08/26 13:18:21;;;;;;;6.43;3.20;;;;;;;;;;5004736;28;20022;-76
2023/08/26 13:20:47;;;;;;;3.13;2.75;;;;;;;;;;5000159;28;20061;-78
2023/08/26 13:23:13;;;;;;;5.85;4.53;;;;;;;;;;5004899;28;20034;-77
2023/08/26 13:25:38;;;;;;;4.57;3.25;;;;;;;;;;5006253;28;20058;-77
2023/08/26 13:28:05;;;;;;;5.18;3.25;;;;;;;;;;4995085;28;20026;-77
2023/08/26 13:30:32;;;;;;;7.32;3.53;;;;;;;;;;4992316;28;20514;-77
2023/08/26 13:32:58;;;;;;;4.45;3.05;;;;;;;;;;5000567;28;20034;-77
2023/08/26 13:35:23;;;;;;;5.47;3.30;;;;;;;;;;5006817;28;20040;-78
2023/08/26 13:37:49;;;;;;;6.80;3.25;;;;;;;;;;5006622;28;20692;-78
2023/08/26 13:40:14;;;;;;;6.60;3.53;;;;;;;;;;5010106;28;20037;-78
2023/08/26 13:42:40;;;;;;;8.73;3.10;;;;;;;;;;5011953;28;20026;-78
2023/08/26 13:45:06;;;;;;;6.72;3.00;;;;;;;;;;5016087;28;20040;-78
2023/08/26 13:47:31;;;;;;;4.38;3.03;;;;;;;;;;5038502;28;20030;-76
2023/08/26 13:49:57;;;;;;;3.92;3.17;;;;;;;;;;5003971;28;20054;-77
2023/08/26 13:52:22;;;;;;;6.82;2.90;;;;;;;;;;5002573;28;20026;-77
2023/08/26 13:54:48;;;;;;;5.88;3.40;;;;;;;;;;5028802;28;20104;-76
2023/08/26 13:57:13;;;;;;;3.40;3.10;;;;;;;;;;5008375;28;20022;-78
2023/08/26 13:59:39;;;;;;;5.32;3.17;;;;;;;;;;4994558;28;20070;-78
2023/08/26 14:02:05;;;;;;;4.28;3.08;;;;;;;;;;5007121;28;20045;-78
2023/08/26 14:04:31;;;;;;;3.15;2.85;;;;;;;;;;5018340;28;20030;-77
2023/08/26 14:06:57;;;;;;;3.47;2.95;;;;;;;;;;4991570;28;20030;-78
2023/08/26 14:09:22;;;;;;;5.90;3.40;;;;;;;;;;5009922;28;20406;-78
2023/08/26 14:11:48;;;;;;;7.82;3.20;;;;;;;;;;5003991;28;20037;-79
2023/08/26 14:14:13;;;;;;;5.65;4.03;;;;;;;;;;5009749;28;20030;-78
2023/08/26 14:16:40;;;;;;;5.05;3.45;;;;;;;;;;5010377;28;20048;-77
2023/08/26 14:19:06;;;;;;;3.20;2.55;;;;;;;;;;5000837;28;20112;-77
2023/08/26 14:21:31;;;;;;;3.75;2.75;;;;;;;;;;5017109;28;20814;-78
2023/08/26 14:23:57;;;;;;;7.65;3.45;;;;;;;;;;5010015;28;20045;-77
2023/08/26 14:26:22;;;;;;;6.28;2.95;;;;;;;;;;5006663;28;20057;-78
2023/08/26 14:28:48;;;;;;;4.60;2.85;;;;;;;;;;5010843;28;20057;-78
2023/08/26 14:31:13;;;;;;;7.68;3.53;;;;;;;;;;5010538;28;20022;-78
2023/08/26 14:33:39;;;;;;;6.63;3.90;;;;;;;;;;5009132;28;20080;-78
2023/08/26 14:36:05;;;;;;;6.95;3.85;;;;;;;;;;5010327;28;20082;-77
2023/08/26 14:38:30;;;;;;;5.43;3.03;;;;;;;;;;5008636;28;20034;-78